createdAt,value
2019-02-23T00:01:48.342Z,72.31
2019-02-23T00:04:17.414Z,71.50
2019-02-23T00:06:46.519Z,72.10
2019-02-23T00:09:15.791Z,71.81
2019-02-23T00:11:50.152Z,71.37
2019-02-23T00:14:19.290Z,71.43
2019-02-23T00:16:49.500Z,71.53
2019-02-23T00:19:24.898Z,71.44
2019-02-23T00:21:52.223Z,70.99
2019-02-23T00:24:21.348Z,70.19
2019-02-23T00:26:53.353Z,70.47
2019-02-23T00:29:30.582Z,70.82
2019-02-23T00:31:59.712Z,70.23
2019-02-23T00:34:34.119Z,69.28
2019-02-23T00:37:03.244Z,69.47
2019-02-23T00:39:37.239Z,69.39
2019-02-23T00:42:08.552Z,68.75
2019-02-23T00:44:45.863Z,69.16
2019-02-23T00:47:15.076Z,69.72
2019-02-23T00:49:45.123Z,69.88
2019-02-23T00:52:14.240Z,70.17
2019-02-23T00:54:44.675Z,70.02
2019-02-23T00:57:16.026Z,70.28
2019-02-23T00:59:48.086Z,70.35
2019-02-23T01:02:23.128Z,70.51
2019-02-23T01:04:54.985Z,70.13
2019-02-23T01:07:24.489Z,69.72
2019-02-23T01:09:55.331Z,69.21
2019-02-23T01:12:28.191Z,68.52
2019-02-23T01:15:01.123Z,68.39
2019-02-23T01:17:31.765Z,68.13
2019-02-23T01:20:00.871Z,68.06
2019-02-23T01:22:30.263Z,67.72
2019-02-23T01:24:59.385Z,66.96
2019-02-23T01:27:28.479Z,67.48
2019-02-23T01:30:02.258Z,67.73
2019-02-23T01:32:31.091Z,68.05
2019-02-23T01:35:00.300Z,67.99
2019-02-23T01:37:29.404Z,68.42
2019-02-23T01:39:58.560Z,67.51
2019-02-23T01:42:31.090Z,67.00
2019-02-23T01:45:02.759Z,67.77
2019-02-23T01:47:31.996Z,68.07
2019-02-23T01:50:03.952Z,68.49
2019-02-23T01:52:36.946Z,68.86
2019-02-23T01:55:08.193Z,70.06
2019-02-23T01:57:40.230Z,70.47
2019-02-23T02:00:21.246Z,70.20
2019-02-23T02:02:50.364Z,69.79
2019-02-23T02:05:19.448Z,68.53
2019-02-23T02:07:54.380Z,68.06
2019-02-23T02:10:21.136Z,68.33
2019-02-23T02:12:52.312Z,68.56
2019-02-23T02:15:25.330Z,68.90
2019-02-23T02:17:57.015Z,69.96
2019-02-23T02:20:31.074Z,69.97
2019-02-23T02:23:02.892Z,70.64
2019-02-23T02:25:33.507Z,71.22
2019-02-23T02:28:02.622Z,72.28
2019-02-23T02:30:31.735Z,73.22
2019-02-23T02:33:00.868Z,73.86
2019-02-23T02:35:31.114Z,74.14
2019-02-23T02:38:10.871Z,74.59
2019-02-23T02:40:46.738Z,74.81
2019-02-23T02:43:15.957Z,74.74
2019-02-23T02:45:45.424Z,75.10
2019-02-23T02:48:16.268Z,75.59
2019-02-23T02:50:46.553Z,75.83
2019-02-23T02:53:15.658Z,76.30
2019-02-23T02:55:47.850Z,75.82
2019-02-23T02:58:18.688Z,75.74
2019-02-23T03:00:47.779Z,75.68
2019-02-23T03:03:18.446Z,75.52
2019-02-23T03:05:47.523Z,75.75
2019-02-23T03:08:17.751Z,75.96
2019-02-23T03:10:46.822Z,74.96
2019-02-23T03:13:21.501Z,74.40
2019-02-23T03:15:54.667Z,74.53
2019-02-23T03:18:23.763Z,73.82
2019-02-23T03:20:53.214Z,73.45
2019-02-23T03:23:26.813Z,74.61
2019-02-23T03:25:57.686Z,74.33
2019-02-23T03:28:35.932Z,74.03
2019-02-23T03:31:05.358Z,74.04
2019-02-23T03:33:38.392Z,73.97
2019-02-23T03:36:09.672Z,73.47
2019-02-23T03:38:39.119Z,72.75
2019-02-23T03:41:29.339Z,72.08
2019-02-23T03:43:59.165Z,72.37
2019-02-23T03:46:28.402Z,73.04
2019-02-23T03:48:57.536Z,74.52
2019-02-23T03:51:26.609Z,74.62
2019-02-23T03:53:57.619Z,73.91
2019-02-23T03:56:27.100Z,73.50
2019-02-23T03:58:56.229Z,73.97
2019-02-23T04:01:27.077Z,73.89
2019-02-23T04:03:57.574Z,74.06
2019-02-23T04:06:29.800Z,75.16
2019-02-23T04:08:58.937Z,75.48
2019-02-23T04:11:28.102Z,74.10
2019-02-23T04:13:57.182Z,73.97
2019-02-23T04:16:27.199Z,72.77
2019-02-23T04:18:56.458Z,72.04
2019-02-23T04:21:25.561Z,70.92
2019-02-23T04:23:56.885Z,69.19
2019-02-23T04:26:26.447Z,68.42
2019-02-23T04:28:56.854Z,67.41
2019-02-23T04:31:30.884Z,65.50
2019-02-23T04:34:07.543Z,67.20
2019-02-23T04:36:36.659Z,68.07
2019-02-23T04:39:15.986Z,66.91
2019-02-23T04:41:45.081Z,68.64
2019-02-23T04:44:16.939Z,66.31
2019-02-23T04:46:48.714Z,67.00
2019-02-23T04:49:18.211Z,65.42
2019-02-23T04:51:49.502Z,65.77
2019-02-23T04:54:21.605Z,65.66
2019-02-23T04:56:51.357Z,66.64
2019-02-23T04:59:20.590Z,65.83
2019-02-23T05:01:50.585Z,65.53
2019-02-23T05:04:25.288Z,64.72
2019-02-23T05:06:54.454Z,64.03
2019-02-23T05:09:23.961Z,65.39
2019-02-23T05:11:53.223Z,64.52
2019-02-23T05:14:25.119Z,65.35
2019-02-23T05:16:55.349Z,65.95
2019-02-23T05:19:24.914Z,67.47
2019-02-23T05:21:53.980Z,67.67
2019-02-23T05:24:24.768Z,68.36
2019-02-23T05:26:53.882Z,68.94
2019-02-23T05:29:23.015Z,69.05
2019-02-23T05:31:52.090Z,70.05
2019-02-23T05:34:23.147Z,70.46
2019-02-23T05:36:52.299Z,70.93
2019-02-23T05:39:21.374Z,71.10
2019-02-23T05:41:53.081Z,71.40
2019-02-23T05:44:22.207Z,71.12
2019-02-23T05:46:53.259Z,70.03
2019-02-23T05:49:22.467Z,69.70
2019-02-23T05:51:53.353Z,70.47
2019-02-23T05:54:22.497Z,71.08
2019-02-23T05:57:01.490Z,70.59
2019-02-23T05:59:40.719Z,69.12
2019-02-23T06:02:09.833Z,67.39
2019-02-23T06:04:49.043Z,66.71
2019-02-23T06:07:09.907Z,66.54
2019-02-23T06:09:38.990Z,67.35
2019-02-23T06:12:08.367Z,67.33
2019-02-23T06:14:42.952Z,67.30
2019-02-23T06:17:13.361Z,68.11
2019-02-23T06:19:42.481Z,68.25
2019-02-23T06:22:13.715Z,67.80
2019-02-23T06:24:51.294Z,67.89
2019-02-23T06:27:20.363Z,67.56
2019-02-23T06:29:49.490Z,67.89
2019-02-23T06:32:20.277Z,68.02
2019-02-23T06:34:54.551Z,66.56
2019-02-23T06:37:23.663Z,68.85
2019-02-23T06:39:53.128Z,65.13
2019-02-23T06:42:22.241Z,65.21
2019-02-23T06:44:51.541Z,64.81
2019-02-23T06:47:23.913Z,65.23
2019-02-23T06:49:55.189Z,65.90
2019-02-23T06:52:24.052Z,66.16
2019-02-23T06:54:53.179Z,66.28
2019-02-23T06:57:23.393Z,66.27
2019-02-23T06:59:53.374Z,67.07
2019-02-23T07:02:24.095Z,67.18
2019-02-23T07:04:56.192Z,66.90
2019-02-23T07:07:25.327Z,67.17
2019-02-23T07:09:54.699Z,67.03
2019-02-23T07:12:28.100Z,67.22
2019-02-23T07:14:57.420Z,67.03
2019-02-23T07:17:28.219Z,66.88
2019-02-23T07:19:57.411Z,67.07
2019-02-23T07:22:26.754Z,67.71
2019-02-23T07:24:56.138Z,68.35
2019-02-23T07:27:26.339Z,68.25
2019-02-23T07:29:59.115Z,67.70
2019-02-23T07:32:28.309Z,68.05
2019-02-23T07:34:58.710Z,67.57
2019-02-23T07:37:32.465Z,68.54
2019-02-23T07:40:02.869Z,68.55
2019-02-23T07:42:43.957Z,68.04
2019-02-23T07:45:19.162Z,67.66
2019-02-23T07:47:48.369Z,68.31
2019-02-23T07:50:17.467Z,67.31
2019-02-23T07:52:50.057Z,67.18
2019-02-23T07:55:17.753Z,67.58
2019-02-23T07:57:47.053Z,67.18
2019-02-23T08:00:19.820Z,67.46
2019-02-23T08:02:48.919Z,67.55
2019-02-23T08:05:21.670Z,67.44
2019-02-23T08:07:55.846Z,67.60
2019-02-23T08:10:29.358Z,67.55
2019-02-23T08:13:00.163Z,68.26
2019-02-23T08:15:29.271Z,67.79
2019-02-23T08:17:59.972Z,67.87
2019-02-23T08:20:29.140Z,68.11
2019-02-23T08:22:58.263Z,67.91
2019-02-23T08:25:28.907Z,67.47
2019-02-23T08:27:58.767Z,67.26
2019-02-23T08:30:32.790Z,66.23
2019-02-23T08:33:06.445Z,66.24
2019-02-23T08:35:37.147Z,65.86
2019-02-23T08:38:06.570Z,64.95
2019-02-23T08:40:36.041Z,64.56
2019-02-23T08:43:10.079Z,64.68
2019-02-23T08:45:39.199Z,64.04
2019-02-23T08:48:08.294Z,64.39
2019-02-23T08:50:41.877Z,64.42
2019-02-23T08:53:14.491Z,65.15
2019-02-23T08:55:48.201Z,64.96
2019-02-23T08:58:19.956Z,64.58
2019-02-23T09:00:49.470Z,63.97
2019-02-23T09:03:25.233Z,63.87
2019-02-23T09:05:54.337Z,63.44
2019-02-23T09:08:23.673Z,62.98
2019-02-23T09:10:53.691Z,62.47
2019-02-23T09:13:23.815Z,62.85
2019-02-23T09:16:01.447Z,63.11
2019-02-23T09:18:34.929Z,62.25
2019-02-23T09:21:06.652Z,62.21
2019-02-23T09:23:41.935Z,61.85
2019-02-23T09:26:11.154Z,63.23
2019-02-23T09:28:40.334Z,61.50
2019-02-23T09:31:10.249Z,60.73
2019-02-23T09:33:41.266Z,60.72
2019-02-23T09:36:10.360Z,59.10
2019-02-23T09:38:39.460Z,58.69
2019-02-23T09:41:09.681Z,59.07
2019-02-23T09:43:39.172Z,58.51
2019-02-23T09:46:08.583Z,58.77
2019-02-23T09:48:39.395Z,58.38
2019-02-23T09:51:09.371Z,57.47
2019-02-23T09:53:40.239Z,57.15
2019-02-23T09:56:17.262Z,55.78
2019-02-23T09:58:49.634Z,55.61
2019-02-23T10:01:19.060Z,54.39
2019-02-23T10:03:53.013Z,55.58
2019-02-23T10:06:23.538Z,55.93
2019-02-23T10:08:58.776Z,54.35
2019-02-23T10:11:28.003Z,53.75
2019-02-23T10:13:57.255Z,54.41
2019-02-23T10:16:30.282Z,52.57
2019-02-23T10:19:00.540Z,53.16
2019-02-23T10:21:34.572Z,53.50
2019-02-23T10:24:04.776Z,53.81
2019-02-23T10:26:34.281Z,53.41
2019-02-23T10:29:03.830Z,53.03
2019-02-23T10:31:33.175Z,51.94
2019-02-23T10:34:02.997Z,50.04
2019-02-23T10:36:36.123Z,50.72
2019-02-23T10:39:06.111Z,50.39
2019-02-23T10:41:36.967Z,49.10
2019-02-23T10:44:07.689Z,47.80
2019-02-23T10:46:36.915Z,47.59
2019-02-23T10:49:06.728Z,46.66
2019-02-23T10:51:35.898Z,45.74
2019-02-23T10:54:07.594Z,44.96
2019-02-23T10:56:39.018Z,44.99
2019-02-23T10:59:08.276Z,46.21
2019-02-23T11:01:38.464Z,44.90
2019-02-23T11:04:10.404Z,44.51
2019-02-23T11:06:40.745Z,45.44
2019-02-23T11:09:17.759Z,44.85
2019-02-23T11:11:48.444Z,44.15
2019-02-23T11:14:18.921Z,43.64
2019-02-23T11:16:48.018Z,41.46
2019-02-23T11:19:18.701Z,41.64
2019-02-23T11:21:48.120Z,41.41
2019-02-23T11:24:18.373Z,41.31
2019-02-23T11:26:50.791Z,41.46
2019-02-23T11:29:20.163Z,40.73
2019-02-23T11:31:49.389Z,39.69
2019-02-23T11:34:24.978Z,39.62
2019-02-23T11:36:54.187Z,39.08
2019-02-23T11:39:26.513Z,38.63
2019-02-23T11:41:59.994Z,37.31
2019-02-23T11:44:33.908Z,37.55
2019-02-23T11:47:10.019Z,36.43
2019-02-23T11:49:43.140Z,36.89
2019-02-23T11:52:17.601Z,35.43
2019-02-23T11:54:49.810Z,35.66
2019-02-23T11:57:19.194Z,34.46
2019-02-23T11:59:48.428Z,34.12
2019-02-23T12:02:17.641Z,34.11
2019-02-23T12:04:47.098Z,33.43
2019-02-23T12:07:16.862Z,33.86
2019-02-23T12:09:45.999Z,32.90
2019-02-23T12:12:16.019Z,32.84
2019-02-23T12:14:46.776Z,32.75
2019-02-23T12:17:19.908Z,32.03
2019-02-23T12:19:49.038Z,31.96
2019-02-23T12:22:18.562Z,31.17
2019-02-23T12:24:50.245Z,30.62
2019-02-23T12:27:19.584Z,30.66
2019-02-23T12:29:51.429Z,30.38
2019-02-23T12:32:23.111Z,30.01
2019-02-23T12:34:56.759Z,29.39
2019-02-23T12:37:26.046Z,29.21
2019-02-23T12:39:57.903Z,29.55
2019-02-23T12:42:27.753Z,29.18
2019-02-23T12:44:59.558Z,28.02
2019-02-23T12:47:29.129Z,28.35
2019-02-23T12:49:59.253Z,27.60
2019-02-23T12:52:28.422Z,27.44
2019-02-23T12:54:59.699Z,28.06
2019-02-23T12:57:36.329Z,27.55
2019-02-23T13:00:07.978Z,26.69
2019-02-23T13:02:39.911Z,26.65
2019-02-23T13:05:09.237Z,26.60
2019-02-23T13:07:38.325Z,26.39
2019-02-23T13:10:11.518Z,25.33
2019-02-23T13:13:36.838Z,25.55
2019-02-23T13:16:30.881Z,25.33
2019-02-23T13:19:59.314Z,25.31
2019-02-23T13:22:48.731Z,24.69
2019-02-23T13:25:48.728Z,25.01
2019-02-23T13:29:04.289Z,24.92
2019-02-23T13:32:05.577Z,23.81
2019-02-23T13:35:11.035Z,23.69
2019-02-23T13:38:25.998Z,23.70
2019-02-23T13:41:40.881Z,23.23
2019-02-23T13:45:00.398Z,23.44
2019-02-23T13:48:05.995Z,23.00
2019-02-23T13:51:19.116Z,22.97
2019-02-23T13:54:38.664Z,22.27
2019-02-23T13:57:37.521Z,22.35
2019-02-23T14:00:44.538Z,22.54
2019-02-23T14:03:38.964Z,22.39
2019-02-23T14:06:35.126Z,22.07
2019-02-23T14:09:40.207Z,21.47
2019-02-23T14:12:37.084Z,21.41
2019-02-23T14:15:57.017Z,21.11
2019-02-23T14:19:07.425Z,21.80
2019-02-23T14:22:28.662Z,21.59
2019-02-23T14:25:32.901Z,20.92
2019-02-23T14:28:35.569Z,20.86
2019-02-23T14:31:54.344Z,21.51
2019-02-23T14:35:28.963Z,21.32
2019-02-23T14:38:53.447Z,21.14
2019-02-23T14:41:47.028Z,21.61
2019-02-23T14:44:40.481Z,21.16
2019-02-23T14:47:41.515Z,21.44
2019-02-23T14:50:56.817Z,21.33
2019-02-23T14:53:53.036Z,21.49
2019-02-23T14:57:07.819Z,21.69
2019-02-23T15:00:08.349Z,22.33
2019-02-23T15:03:11.104Z,21.94
2019-02-23T15:05:54.391Z,21.98
2019-02-23T15:08:39.744Z,23.04
2019-02-23T15:11:53.073Z,22.70
2019-02-23T15:14:58.813Z,23.00
2019-02-23T15:18:07.779Z,22.79
2019-02-23T15:21:09.484Z,22.95
2019-02-23T15:24:18.753Z,23.49
2019-02-23T15:27:23.147Z,23.68
2019-02-23T15:30:22.948Z,24.01
2019-02-23T15:33:31.239Z,23.98
2019-02-23T15:36:14.978Z,23.56
2019-02-23T15:39:23.180Z,23.53
2019-02-23T15:42:21.572Z,23.60
2019-02-23T15:45:50.411Z,23.70
2019-02-23T15:49:22.347Z,23.87
2019-02-23T15:51:51.625Z,24.37
2019-02-23T15:54:29.084Z,25.83
2019-02-23T15:57:01.871Z,26.46
2019-02-23T15:59:36.423Z,26.85
2019-02-23T16:02:05.728Z,27.19
2019-02-23T16:04:55.981Z,27.96
2019-02-23T16:07:28.645Z,28.14
2019-02-23T16:10:04.775Z,27.96
2019-02-23T16:12:35.354Z,28.09
2019-02-23T16:15:06.933Z,27.95
2019-02-23T16:17:36.183Z,28.16
2019-02-23T16:20:10.061Z,28.03
2019-02-23T16:22:39.458Z,28.16
2019-02-23T16:25:09.459Z,27.62
2019-02-23T16:27:56.054Z,27.94
2019-02-23T16:30:30.262Z,27.89
2019-02-23T16:32:59.396Z,27.71
2019-02-23T16:35:30.572Z,28.14
2019-02-23T16:37:59.574Z,28.26
2019-02-23T16:40:28.707Z,28.17
2019-02-23T16:43:01.142Z,28.41
2019-02-23T16:45:33.198Z,28.25
2019-02-23T16:48:04.759Z,28.49
2019-02-23T16:50:34.829Z,28.57
2019-02-23T16:53:05.229Z,28.79
2019-02-23T16:55:35.375Z,29.04
2019-02-23T16:58:06.888Z,29.25
2019-02-23T17:00:37.361Z,29.74
2019-02-23T17:03:07.558Z,29.89
2019-02-23T17:05:42.580Z,29.81
2019-02-23T17:08:12.262Z,29.92
2019-02-23T17:10:42.181Z,29.85
2019-02-23T17:13:12.142Z,29.72
2019-02-23T17:15:42.875Z,30.08
2019-02-23T17:18:14.516Z,29.97
2019-02-23T17:20:44.391Z,30.29
2019-02-23T17:23:17.808Z,30.56
2019-02-23T17:25:47.861Z,30.36
2019-02-23T17:28:19.921Z,30.46
2019-02-23T17:30:50.779Z,30.62
2019-02-23T17:33:22.037Z,30.70
2019-02-23T17:35:51.395Z,30.61
2019-02-23T17:38:25.187Z,30.95
2019-02-23T17:40:54.510Z,30.96
2019-02-23T17:43:25.830Z,30.68
2019-02-23T17:46:01.022Z,30.92
2019-02-23T17:51:02.573Z,31.10
2019-02-23T17:53:31.662Z,30.97
2019-02-23T17:56:10.451Z,30.90
2019-02-23T17:58:35.834Z,30.83
2019-02-23T18:01:05.197Z,30.85
2019-02-23T18:03:37.851Z,30.94
2019-02-23T18:06:10.136Z,30.94
2019-02-23T18:08:43.318Z,30.88
2019-02-23T18:11:29.844Z,30.65
2019-02-23T18:14:03.771Z,31.07
2019-02-23T18:16:33.141Z,31.02
2019-02-23T18:19:03.852Z,30.83
2019-02-23T18:21:33.080Z,30.58
2019-02-23T18:24:02.491Z,30.55
2019-02-23T18:26:31.631Z,30.42
2019-02-23T18:29:00.888Z,30.38
2019-02-23T18:31:35.079Z,30.23
2019-02-23T18:34:04.367Z,30.47
2019-02-23T18:36:33.473Z,30.31
2019-02-23T18:39:06.684Z,30.37
2019-02-23T18:41:33.588Z,30.45
2019-02-23T18:44:02.671Z,30.33
2019-02-23T18:46:31.836Z,29.98
2019-02-23T18:49:01.194Z,30.14
2019-02-23T18:51:33.781Z,30.31
2019-02-23T18:54:02.872Z,30.23
2019-02-23T18:56:32.086Z,29.92
2019-02-23T18:59:01.462Z,29.99
2019-02-23T19:01:30.842Z,29.64
2019-02-23T19:04:00.053Z,29.45
2019-02-23T19:06:29.148Z,29.40
2019-02-23T19:08:58.294Z,29.22
2019-02-23T19:11:27.412Z,29.06
2019-02-23T19:13:57.704Z,29.06
2019-02-23T19:16:29.427Z,29.00
2019-02-23T19:19:00.615Z,29.04
2019-02-23T19:21:32.490Z,28.93
2019-02-23T19:24:02.163Z,28.92
2019-02-23T19:26:37.983Z,29.17
2019-02-23T19:29:10.125Z,28.80
2019-02-23T19:31:39.225Z,29.11
2019-02-23T19:34:17.248Z,28.89
2019-02-23T19:36:48.798Z,28.94
2019-02-23T19:39:17.945Z,29.04
2019-02-23T19:41:48.232Z,29.03
2019-02-23T19:44:17.855Z,28.90
2019-02-23T19:47:27.758Z,28.94
2019-02-23T19:50:00.605Z,28.92
2019-02-23T19:52:29.686Z,28.75
2019-02-23T19:55:01.762Z,28.78
2019-02-23T19:57:31.667Z,28.79
2019-02-23T20:00:03.432Z,28.35
2019-02-23T20:02:32.682Z,28.22
2019-02-23T20:05:03.030Z,28.87
2019-02-23T20:07:35.109Z,27.95
2019-02-23T20:10:07.565Z,28.41
2019-02-23T20:12:38.104Z,28.90
2019-02-23T20:15:15.868Z,29.56
2019-02-23T20:17:45.216Z,29.93
2019-02-23T20:20:15.431Z,30.23
2019-02-23T20:22:46.164Z,30.39
2019-02-23T20:25:16.567Z,30.51
2019-02-23T20:27:49.006Z,30.42
2019-02-23T20:30:18.201Z,30.12
2019-02-23T20:32:47.308Z,30.54
2019-02-23T20:35:17.871Z,30.36
2019-02-23T20:37:48.370Z,30.22
2019-02-23T20:40:17.506Z,30.53
2019-02-23T20:42:46.891Z,30.52
2019-02-23T20:45:19.418Z,30.51
2019-02-23T20:47:48.608Z,30.20
2019-02-23T20:50:18.376Z,30.43
2019-02-23T20:52:48.956Z,30.44
2019-02-23T20:55:21.846Z,30.03
2019-02-23T20:57:54.057Z,30.05
2019-02-23T21:00:23.186Z,29.88
2019-02-23T21:02:53.407Z,30.15
2019-02-23T21:05:25.300Z,29.97
2019-02-23T21:07:57.185Z,30.33
2019-02-23T21:10:26.362Z,30.23
2019-02-23T21:12:55.686Z,30.33
2019-02-23T21:15:29.582Z,30.27
2019-02-23T21:17:58.770Z,30.34
2019-02-23T21:20:27.890Z,30.42
2019-02-23T21:22:59.900Z,30.26
2019-02-23T21:25:33.957Z,29.96
2019-02-23T21:28:06.738Z,29.48
2019-02-23T21:30:38.822Z,29.57
2019-02-23T21:33:08.716Z,29.49
2019-02-23T21:35:38.101Z,29.50
2019-02-23T21:38:07.912Z,29.54
2019-02-23T21:40:39.931Z,29.51
2019-02-23T21:43:09.381Z,29.84
2019-02-23T21:45:38.493Z,29.99
2019-02-23T21:48:09.339Z,29.33
2019-02-23T21:50:43.936Z,29.63
2019-02-23T21:53:13.936Z,30.46
2019-02-23T21:55:46.276Z,29.03
2019-02-23T21:58:15.405Z,30.10
2019-02-23T22:00:44.824Z,30.27
2019-02-23T22:03:17.513Z,28.60
2019-02-23T22:05:46.581Z,29.57
2019-02-23T22:08:25.889Z,29.83
2019-02-23T22:10:46.614Z,30.73
2019-02-23T22:13:15.723Z,30.73
2019-02-23T22:15:46.226Z,30.38
2019-02-23T22:18:19.569Z,30.39
2019-02-23T22:20:48.836Z,30.35
2019-02-23T22:23:18.215Z,29.94
2019-02-23T22:25:51.700Z,30.38
2019-02-23T22:28:21.940Z,30.59
2019-02-23T22:30:51.074Z,30.73
2019-02-23T22:33:20.197Z,30.37
2019-02-23T22:35:49.281Z,30.27
2019-02-23T22:38:18.361Z,31.23
2019-02-23T22:40:48.747Z,31.74
2019-02-23T22:43:19.473Z,30.79
2019-02-23T22:45:48.722Z,32.19
2019-02-23T22:48:19.131Z,31.94
2019-02-23T22:50:48.335Z,32.98
2019-02-23T22:53:20.593Z,33.38
2019-02-23T22:55:49.698Z,30.76
2019-02-23T22:58:18.802Z,30.60
2019-02-23T23:01:03.869Z,29.78
2019-02-23T23:03:33.227Z,30.04
2019-02-23T23:06:07.836Z,30.58
2019-02-23T23:08:38.873Z,29.93
2019-02-23T23:11:11.017Z,30.13
2019-02-23T23:13:46.726Z,30.61
2019-02-23T23:16:19.183Z,28.88
2019-02-23T23:18:48.280Z,29.76
2019-02-23T23:21:17.386Z,29.60
2019-02-23T23:23:46.675Z,28.68
2019-02-23T23:26:16.906Z,29.50
2019-02-23T23:28:47.047Z,29.59
2019-02-23T23:31:20.650Z,28.77
2019-02-23T23:33:49.737Z,28.30
2019-02-23T23:36:21.010Z,30.14
2019-02-23T23:38:53.854Z,31.00
2019-02-23T23:41:24.967Z,30.39
2019-02-23T23:43:55.098Z,29.66
2019-02-23T23:46:24.176Z,30.68
2019-02-23T23:48:53.274Z,31.12
2019-02-23T23:51:24.949Z,31.99
2019-02-23T23:54:00.112Z,32.14
2019-02-23T23:56:29.247Z,31.64
2019-02-23T23:58:58.311Z,30.68
